^^
Meteo Knjazevac Station Historical Data
Daily Summary for June 20, 2021 Units:  Metric    English   Both
Daily Weekly Monthly Yearly Custom
  High: Low: Average:
Temperature: 3 °C 1.1 °C 2.1 °C
Dew Point: 2.8 °C 0.9 °C 1.8 °C
Humidity: 99% 96% 99%
Wind Speed: 4.8km/h 1.6km/h 3.4km/h
Wind Gust: 11.3km/h - -
Wind- - West
Pressure: 1030.4 hPa 1029.7 hPa -
Precipitation: 0 mm    
Historical Graphs
 
 
Tabular Data for June 20, 2021
Time Temperature Dew Point Pressure Wind Wind Speed Wind Gust Humidity Rainfall Rate (Hourly) solar Conditions
00:00 3 °C 2.4 °C 1030 hPa West 3.2 km/h 6.4 km/h 96% 0 mm 0 W/m2
00:10 3 °C 2.7 °C 1030.4 hPa WNW 3.2 km/h 11.3 km/h 98% 0 mm 0 W/m2
00:20 2.9 °C 2.6 °C 1030.4 hPa West 3.2 km/h 6.4 km/h 98% 0 mm 0 W/m2
00:30 2.9 °C 2.8 °C 1030.4 hPa West 3.2 km/h 9.7 km/h 99% 0 mm 0 W/m2
00:40 2.8 °C 2.7 °C 1030.4 hPa West 4.8 km/h 6.4 km/h 99% 0 mm 0 W/m2
00:50 2.7 °C 2.6 °C 1030.4 hPa West 3.2 km/h 6.4 km/h 99% 0 mm 0 W/m2
01:00 2.6 °C 2.4 °C 1030.4 hPa West 3.2 km/h 4.8 km/h 99% 0 mm 0 W/m2
01:10 2.5 °C 2.2 °C 1030 hPa West 3.2 km/h 4.8 km/h 98% 0 mm 0 W/m2
01:20 2.4 °C 2.3 °C 1030 hPa WNW 3.2 km/h 6.4 km/h 99% 0 mm 0 W/m2
01:30 2.3 °C 2.2 °C 1030 hPa WNW 3.2 km/h 4.8 km/h 99% 0 mm 0 W/m2
01:40 2.3 °C 2.2 °C 1030 hPa WNW 1.6 km/h 4.8 km/h 99% 0 mm 0 W/m2
01:50 2.2 °C 2 °C 1030 hPa West 3.2 km/h 4.8 km/h 99% 0 mm 0 W/m2
02:00 1.9 °C 1.6 °C 1030 hPa West 1.6 km/h 4.8 km/h 98% 0 mm 0 W/m2
02:10 1.7 °C 1.4 °C 1030 hPa West 1.6 km/h 4.8 km/h 98% 0 mm 0 W/m2
02:20 1.5 °C 1.2 °C 1030 hPa West 4.8 km/h 8 km/h 98% 0 mm 0 W/m2
02:30 1.5 °C 1.3 °C 1029.7 hPa WNW 4.8 km/h 9.7 km/h 99% 0 mm 0 W/m2
02:40 1.7 °C 1.6 °C 1029.7 hPa WNW 4.8 km/h 9.7 km/h 99% 0 mm 0 W/m2
02:50 1.8 °C 1.7 °C 1029.7 hPa West 3.2 km/h 8 km/h 99% 0 mm 0 W/m2
03:00 1.6 °C 1.4 °C 1029.7 hPa WNW 3.2 km/h 8 km/h 99% 0 mm 0 W/m2
03:10 1.5 °C 1.3 °C 1029.7 hPa West 3.2 km/h 6.4 km/h 99% 0 mm 0 W/m2
03:20 1.3 °C 1.2 °C 1029.7 hPa West 3.2 km/h 6.4 km/h 99% 0 mm 0 W/m2
03:30 1.2 °C 1.1 °C 1029.7 hPa West 4.8 km/h 8 km/h 99% 0 mm 0 W/m2
03:40 1.2 °C 1.1 °C 1029.7 hPa West 3.2 km/h 8 km/h 99% 0 mm 0 W/m2
03:50 1.1 °C 0.9 °C 1029.7 hPa West 3.2 km/h 4.8 km/h 99% 0 mm 0 W/m2
04:00 1.1 °C 0.9 °C 1029.7 hPa WNW 3.2 km/h 6.4 km/h 99% 0 mm 0 W/m2
Knjazevac, Serbia
Compliments of Weather Underground - 2 mb